• Join FlightAware (Why Join?)
  • Login
  • US Flag 
01:58PM EDT


 

Airport Tracker/Info


-or-


 

Live Flight TrackerFlight Track Log ✈ EJA380 ✈ 23-Jul-2013 ✈ KMFR - KSMF

Flight Track Log - Related Links

Times and Time Zones

All times are in EDT time to prevent confusion due to time zone crossing. See the EJA380 flight status page for this flight to view local times or setup timezone preferences in your user account.

Time Position Orientation Groundspeed Altitude Reporting Facility
EDT Latitude Longitude Course Direction KTS MPH feet Rate Location/Type
06:02PM 42.3947 -122.8797 165° South 165 190 2,800  Level Seattle Center
06:03PM 42.4639 -122.8439 21° North 279 321 6,600 3,900 Climbing Seattle Center
06:04PM 42.4628 -122.7458 91° East 305 351 10,800 3,120 Climbing Seattle Center
06:05PM 42.3856 -122.7586 187° South 298 343 13,000 1,080 Climbing Seattle Center
06:06PM 42.2986 -122.8275 210° Southwest 362 417 13,000  Level Seattle Center
06:07PM 42.2094 -122.8828 205° Southwest 359 413 13,000  Level Seattle Center
06:08PM 41.7751 -122.6544 165° South  Level Estimated
06:08PM 42.1078 -122.8739 176° South 367 422 13,000  Level Seattle Center
06:09PM 42.0050 -122.8633 176° South 370 426 13,000  Level Seattle Center
06:10PM 41.9053 -122.8525 175° South 361 415 13,000 -60 Level Seattle Center
06:11PM 41.8064 -122.8422 176° South 359 413 12,900 -60 Descending Seattle Center
06:12PM 41.7019 -122.8328 176° South 373 429 12,900  Level Seattle Center
06:13PM 41.6025 -122.8250 177° South 370 426 13,000  Climbing Oakland Center
06:14PM 41.4986 -122.8133 175° South 373 429 13,000  Level Oakland Center
06:15PM 41.3931 -122.7889 170° South 383 441 13,000  Level Oakland Center
06:17PM 41.2728 -122.7314 160° South 383 441 13,000  Level Seattle Center
06:18PM 41.1711 -122.6881 162° South 384 442 13,000  Level Seattle Center
06:19PM 41.0900 -122.6544 163° South 384 442 13,000  Level Oakland Center
06:20PM 40.9697 -122.5983 161° South 383 441 13,000  Level Oakland Center
06:21PM 40.8736 -122.5514 160° South 375 432 13,000  Level Oakland Center
06:22PM 40.7811 -122.5067 160° South 364 419 13,000  Level Oakland Center
06:23PM 40.6853 -122.4617 160° South 362 417 13,000  Level Oakland Center
06:24PM 40.5825 -122.4128 160° South 383 441 13,000 -60 Level Oakland Center
06:25PM 40.4844 -122.3678 161° South 374 430 12,900 -300 Descending Oakland Center
06:26PM 40.3875 -122.3219 160° South 370 426 12,500 -480 Descending Oakland Center
06:27PM 40.2906 -122.2767 160° South 376 433 12,000 -540 Descending Oakland Center
06:28PM 40.1892 -122.2275 160° South 390 449 11,500 -540 Descending Oakland Center
06:29PM 40.0886 -122.1822 161° South 370 426 11,000 -540 Descending Oakland Center
06:30PM 39.9956 -122.1403 161° South 357 411 10,500 -600 Descending Oakland Center
06:31PM 39.9144 -122.1033 161° South 321 369 9,900 -600 Descending Oakland Center
06:32PM 39.8394 -122.0672 160° South 288 331 9,400 -540 Descending Oakland Center
06:33PM 39.7667 -122.0336 160° South 279 321 8,900 -540 Descending Oakland Center
06:34PM 39.6808 -121.9931 160° South 273 314 8,300 -600 Descending Oakland Center
06:35PM 39.6081 -121.9603 161° South 276 318 7,800 -540 Descending Oakland Center
06:36PM 39.5375 -121.9275 160° South 272 313 7,300 -540 Descending Oakland Center
06:37PM 39.4639 -121.8947 161° South 273 314 6,700 -600 Descending Oakland Center
06:38PM 39.3914 -121.8608 160° South 277 319 6,100 -600 Descending Oakland Center
06:39PM 39.3197 -121.8303 162° South 275 316 5,500 -540 Descending Oakland Center
06:40PM 39.2483 -121.7967 160° South 273 314 5,000 -300 Descending Oakland Center
06:41PM 39.1778 -121.7650 161° South 271 312 5,000  Level Oakland Center
06:42PM 39.1042 -121.7322 161° South 277 319 5,000  Level Oakland Center
06:43PM 39.0292 -121.6994 161° South 284 327 5,000 -240 Level Oakland Center
06:44PM 38.9542 -121.6669 161° South 285 328 4,600 -660 Descending Oakland Center
06:45PM 38.8783 -121.6369 163° South 264 304 3,700 -1,080 Descending Oakland Center
06:46PM 38.8175 -121.6128 163° South 232 267 2,500 -1,080 Descending Oakland Center
06:47PM 38.7833 -121.6000 164° South 137 158 1,800 -840 Descending Northern Cal TRACON
06:48PM 38.7500 -121.6000 180° South 112 129 1,100 -480 Descending Northern Cal TRACON
06:50PM 38.6881 -121.5997 180° South 122 140 200 -420 Descending Oakland Center
06:52PM 38.6833 -121.5833 169° South  Level FlightAware Approximate